createdAt,value
2022-10-12T00:00:37.388Z,1009
2022-10-12T00:01:53.691Z,1009
2022-10-12T00:03:09.986Z,1009
2022-10-12T00:04:25.308Z,1009
2022-10-12T00:05:41.587Z,1009
2022-10-12T00:06:57.884Z,1009
2022-10-12T00:08:14.180Z,1009
2022-10-12T00:09:30.476Z,1009
2022-10-12T00:10:46.769Z,1009
2022-10-12T00:12:03.055Z,1009
2022-10-12T00:13:19.345Z,1009
2022-10-12T00:14:35.639Z,1009
2022-10-12T00:15:51.944Z,1008.9
2022-10-12T00:17:08.000Z,1008.9
2022-10-12T00:18:24.529Z,1008.9
2022-10-12T00:19:40.814Z,1008.9
2022-10-12T00:20:56.126Z,1008.9
2022-10-12T00:22:12.422Z,1008.9
2022-10-12T00:23:28.707Z,1008.9
2022-10-12T00:24:45.003Z,1009
2022-10-12T00:26:01.291Z,1008.9
2022-10-12T00:27:17.598Z,1008.9
2022-10-12T00:28:33.882Z,1008.9
2022-10-12T00:29:50.178Z,1008.9
2022-10-12T00:31:06.470Z,1008.9
2022-10-12T00:32:22.774Z,1008.9
2022-10-12T00:33:39.064Z,1008.9
2022-10-12T00:34:55.358Z,1008.9
2022-10-12T00:36:11.650Z,1008.9
2022-10-12T00:37:26.950Z,1008.9
2022-10-12T00:38:43.257Z,1008.9
2022-10-12T00:39:59.553Z,1008.9
2022-10-12T00:41:15.849Z,1008.9
2022-10-12T00:42:32.138Z,1008.9
2022-10-12T00:43:48.415Z,1008.9
2022-10-12T00:45:04.711Z,1008.9
2022-10-12T00:46:21.004Z,1009
2022-10-12T00:47:37.297Z,1008.9
2022-10-12T00:48:53.592Z,1009
2022-10-12T00:50:09.902Z,1009
2022-10-12T00:51:26.186Z,1008.9
2022-10-12T00:52:42.477Z,1009
2022-10-12T00:53:57.791Z,1008.9
2022-10-12T00:55:14.092Z,1008.9
2022-10-12T00:56:30.369Z,1009
2022-10-12T00:57:46.662Z,1008.9
2022-10-12T00:59:02.956Z,1009
2022-10-12T01:00:19.249Z,1009
2022-10-12T01:01:35.543Z,1009
2022-10-12T01:02:51.844Z,1009
2022-10-12T01:04:08.135Z,1008.9
2022-10-12T01:05:24.423Z,1008.9
2022-10-12T01:06:40.723Z,1008.9
2022-10-12T01:07:57.008Z,1008.9
2022-10-12T01:09:13.305Z,1008.9
2022-10-12T01:10:29.599Z,1009
2022-10-12T01:11:44.904Z,1009
2022-10-12T01:13:01.211Z,1009
2022-10-12T01:14:17.496Z,1009
2022-10-12T01:15:33.788Z,1009
2022-10-12T01:16:50.086Z,1009
2022-10-12T01:18:06.370Z,1008.9
2022-10-12T01:19:22.663Z,1009
2022-10-12T01:20:38.962Z,1008.9
2022-10-12T01:21:55.248Z,1008.9
2022-10-12T01:23:11.550Z,1008.9
2022-10-12T01:24:27.850Z,1008.9
2022-10-12T01:25:44.136Z,1008.9
2022-10-12T01:27:00.424Z,1008.8
2022-10-12T01:28:15.741Z,1008.8
2022-10-12T01:29:32.030Z,1008.8
2022-10-12T01:30:48.322Z,1008.8
2022-10-12T01:32:04.614Z,1008.8
2022-10-12T01:33:20.912Z,1008.8
2022-10-12T01:34:37.209Z,1008.8
2022-10-12T01:35:53.501Z,1008.8
2022-10-12T01:37:09.795Z,1008.8
2022-10-12T01:38:26.096Z,1008.9
2022-10-12T01:39:42.373Z,1008.9
2022-10-12T01:40:58.670Z,1008.9
2022-10-12T01:42:14.959Z,1008.8
2022-10-12T01:43:31.251Z,1008.9
2022-10-12T01:44:46.569Z,1008.9
2022-10-12T01:46:02.854Z,1008.9
2022-10-12T01:47:19.152Z,1008.9
2022-10-12T01:48:35.444Z,1008.9
2022-10-12T01:49:51.737Z,1008.8
2022-10-12T01:51:08.039Z,1008.8
2022-10-12T01:52:24.332Z,1008.9
2022-10-12T01:53:40.629Z,1008.8
2022-10-12T01:54:56.910Z,1008.8
2022-10-12T01:56:13.206Z,1008.8
2022-10-12T01:57:29.497Z,1008.8
2022-10-12T01:58:45.789Z,1008.7
2022-10-12T02:00:02.078Z,1008.8
2022-10-12T02:01:17.394Z,1008.8
2022-10-12T02:02:33.685Z,1008.7
2022-10-12T02:03:49.975Z,1008.8
2022-10-12T02:05:06.271Z,1008.8
2022-10-12T02:06:22.573Z,1008.8
2022-10-12T02:07:38.866Z,1008.8
2022-10-12T02:08:55.154Z,1008.8
2022-10-12T02:10:11.457Z,1008.8
2022-10-12T02:11:27.750Z,1008.8
2022-10-12T02:12:44.048Z,1008.7
2022-10-12T02:14:00.322Z,1008.8
2022-10-12T02:15:16.631Z,1008.7
2022-10-12T02:16:32.908Z,1008.8
2022-10-12T02:17:48.243Z,1008.8
2022-10-12T02:19:04.527Z,1008.8
2022-10-12T02:20:20.808Z,1008.8
2022-10-12T02:21:37.111Z,1008.8
2022-10-12T02:22:53.410Z,1008.8
2022-10-12T02:24:09.687Z,1008.8
2022-10-12T02:25:25.988Z,1008.8
2022-10-12T02:26:42.283Z,1008.7
2022-10-12T02:27:58.579Z,1008.8
2022-10-12T02:29:14.863Z,1008.8
2022-10-12T02:30:31.166Z,1008.8
2022-10-12T02:31:47.455Z,1008.9
2022-10-12T02:33:03.746Z,1008.9
2022-10-12T02:34:19.055Z,1008.8
2022-10-12T02:35:35.344Z,1008.8
2022-10-12T02:36:51.645Z,1008.8
2022-10-12T02:38:07.947Z,1008.8
2022-10-12T02:39:24.225Z,1008.8
2022-10-12T02:40:40.529Z,1008.8
2022-10-12T02:41:56.814Z,1008.7
2022-10-12T02:43:13.118Z,1008.7
2022-10-12T02:44:29.409Z,1008.7
2022-10-12T02:45:45.698Z,1008.7
2022-10-12T02:47:01.987Z,1008.7
2022-10-12T02:48:18.296Z,1008.7
2022-10-12T02:49:34.587Z,1008.7
2022-10-12T02:50:49.884Z,1008.7
2022-10-12T02:52:06.181Z,1008.7
2022-10-12T02:53:22.475Z,1008.6
2022-10-12T02:54:38.770Z,1008.7
2022-10-12T02:55:55.072Z,1008.7
2022-10-12T02:57:11.350Z,1008.7
2022-10-12T02:58:27.663Z,1008.6
2022-10-12T02:59:43.938Z,1008.6
2022-10-12T03:01:00.240Z,1008.6
2022-10-12T03:02:16.531Z,1008.6
2022-10-12T03:03:32.821Z,1008.6
2022-10-12T03:04:49.112Z,1008.5
2022-10-12T03:06:05.408Z,1008.5
2022-10-12T03:07:20.720Z,1008.6
2022-10-12T03:08:37.002Z,1008.6
2022-10-12T03:09:53.313Z,1008.5
2022-10-12T03:11:09.605Z,1008.6
2022-10-12T03:12:25.895Z,1008.5
2022-10-12T03:13:42.191Z,1008.6
2022-10-12T03:14:58.471Z,1008.6
2022-10-12T03:16:14.785Z,1008.6
2022-10-12T03:17:31.068Z,1008.6
2022-10-12T03:18:47.358Z,1008.6
2022-10-12T03:20:03.646Z,1008.5
2022-10-12T03:21:19.950Z,1008.6
2022-10-12T03:22:36.234Z,1008.6
2022-10-12T03:23:51.542Z,1008.6
2022-10-12T03:25:07.842Z,1008.5
2022-10-12T03:26:24.143Z,1008.5
2022-10-12T03:27:40.430Z,1008.6
2022-10-12T03:28:56.720Z,1008.5
2022-10-12T03:30:13.016Z,1008.5
2022-10-12T03:31:29.304Z,1008.5
2022-10-12T03:32:45.590Z,1008.5
2022-10-12T03:34:01.886Z,1008.5
2022-10-12T03:35:18.185Z,1008.5
2022-10-12T03:36:34.492Z,1008.5
2022-10-12T03:37:50.777Z,1008.6
2022-10-12T03:39:07.075Z,1008.6
2022-10-12T03:40:22.377Z,1008.5
2022-10-12T03:41:38.675Z,1008.5
2022-10-12T03:42:54.970Z,1008.5
2022-10-12T03:44:11.264Z,1008.5
2022-10-12T03:45:27.544Z,1008.5
2022-10-12T03:46:43.844Z,1008.4
2022-10-12T03:48:00.131Z,1008.4
2022-10-12T03:49:16.428Z,1008.4
2022-10-12T03:50:32.719Z,1008.3
2022-10-12T03:51:49.007Z,1008.3
2022-10-12T03:53:05.310Z,1008.3
2022-10-12T03:54:21.600Z,1008.4
2022-10-12T03:55:37.902Z,1008.4
2022-10-12T03:56:53.215Z,1008.4
2022-10-12T03:58:09.508Z,1008.4
2022-10-12T03:59:25.784Z,1008.4
2022-10-12T04:00:42.084Z,1008.4
2022-10-12T04:01:58.386Z,1008.4
2022-10-12T04:03:14.663Z,1008.4
2022-10-12T04:04:30.965Z,1008.4
2022-10-12T04:05:47.264Z,1008.4
2022-10-12T04:07:03.545Z,1008.4
2022-10-12T04:08:19.844Z,1008.4
2022-10-12T04:09:36.131Z,1008.4
2022-10-12T04:10:52.427Z,1008.4
2022-10-12T04:12:08.716Z,1008.4
2022-10-12T04:13:24.044Z,1008.4
2022-10-12T04:14:40.324Z,1008.4
2022-10-12T04:15:56.624Z,1008.4
2022-10-12T04:17:12.909Z,1008.4
2022-10-12T04:18:29.209Z,1008.4
2022-10-12T04:19:44.524Z,1008.4
2022-10-12T04:21:00.813Z,1008.4
2022-10-12T04:22:17.115Z,1008.4
2022-10-12T04:23:33.396Z,1008.4
2022-10-12T04:24:49.701Z,1008.4
2022-10-12T04:26:05.988Z,1008.5
2022-10-12T04:27:22.296Z,1008.4
2022-10-12T04:28:38.578Z,1008.4
2022-10-12T04:29:54.871Z,1008.4
2022-10-12T04:31:11.162Z,1008.4
2022-10-12T04:32:27.464Z,1008.4
2022-10-12T04:33:43.745Z,1008.4
2022-10-12T04:35:00.035Z,1008.4
2022-10-12T04:36:15.357Z,1008.4
2022-10-12T04:37:31.648Z,1008.4
2022-10-12T04:38:47.936Z,1008.4
2022-10-12T04:40:04.234Z,1008.5
2022-10-12T04:41:20.530Z,1008.4
2022-10-12T04:42:36.824Z,1008.4
2022-10-12T04:43:53.108Z,1008.4
2022-10-12T04:45:09.404Z,1008.4
2022-10-12T04:46:25.692Z,1008.5
2022-10-12T04:47:41.991Z,1008.4
2022-10-12T04:48:58.281Z,1008.4
2022-10-12T04:50:14.573Z,1008.4
2022-10-12T04:51:30.874Z,1008.4
2022-10-12T04:52:46.191Z,1008.5
2022-10-12T04:54:02.476Z,1008.4
2022-10-12T04:55:18.776Z,1008.5
2022-10-12T04:56:35.055Z,1008.5
2022-10-12T04:57:51.350Z,1008.5
2022-10-12T04:59:07.599Z,1008.5
2022-10-12T05:00:23.841Z,1008.5
2022-10-12T05:01:40.091Z,1008.5
2022-10-12T05:02:56.325Z,1008.5
2022-10-12T05:04:12.575Z,1008.5
2022-10-12T05:05:28.813Z,1008.5
2022-10-12T05:06:45.055Z,1008.5
2022-10-12T05:08:01.290Z,1008.5
2022-10-12T05:09:16.562Z,1008.5
2022-10-12T05:10:32.794Z,1008.5
2022-10-12T05:11:49.019Z,1008.5
2022-10-12T05:13:05.274Z,1008.5
2022-10-12T05:14:21.505Z,1008.5
2022-10-12T05:15:37.743Z,1008.6
2022-10-12T05:16:53.989Z,1008.6
2022-10-12T05:18:10.217Z,1008.6
2022-10-12T05:19:26.462Z,1008.6
2022-10-12T05:20:42.702Z,1008.5
2022-10-12T05:21:58.940Z,1008.5
2022-10-12T05:23:15.184Z,1008.5
2022-10-12T05:24:31.415Z,1008.5
2022-10-12T05:25:46.677Z,1008.4
2022-10-12T05:27:02.921Z,1008.4
2022-10-12T05:28:19.158Z,1008.4
2022-10-12T05:29:35.388Z,1008.4
2022-10-12T05:30:51.638Z,1008.4
2022-10-12T05:32:07.866Z,1008.4
2022-10-12T05:33:24.110Z,1008.4
2022-10-12T05:34:40.357Z,1008.5
2022-10-12T05:36:05.453Z,1008.5
2022-10-12T05:37:21.690Z,1008.5
2022-10-12T05:38:37.919Z,1008.5
2022-10-12T05:39:54.171Z,1008.5
2022-10-12T05:41:10.400Z,1008.5
2022-10-12T05:42:26.634Z,1008.5
2022-10-12T05:43:42.878Z,1008.5
2022-10-12T05:44:59.119Z,1008.5
2022-10-12T05:46:15.360Z,1008.5
2022-10-12T05:47:31.605Z,1008.5
2022-10-12T05:48:47.834Z,1008.5
2022-10-12T05:50:04.077Z,1008.5
2022-10-12T05:51:20.306Z,1008.5
2022-10-12T05:52:36.544Z,1008.5
2022-10-12T05:53:52.789Z,1008.6
2022-10-12T05:55:09.023Z,1008.5
2022-10-12T05:56:25.265Z,1008.5
2022-10-12T05:57:41.500Z,1008.6
2022-10-12T05:58:57.752Z,1008.6
2022-10-12T06:00:13.989Z,1008.7
2022-10-12T06:01:29.238Z,1008.6
2022-10-12T06:02:44.502Z,1008.6
2022-10-12T06:04:00.732Z,1008.6
2022-10-12T06:05:16.968Z,1008.6
2022-10-12T06:06:33.213Z,1008.6
2022-10-12T06:07:49.457Z,1008.6
2022-10-12T06:09:05.689Z,1008.6
2022-10-12T06:10:21.923Z,1008.6
2022-10-12T06:11:38.161Z,1008.7
2022-10-12T06:12:54.409Z,1008.7
2022-10-12T06:14:10.650Z,1008.7
2022-10-12T06:15:26.883Z,1008.6
2022-10-12T06:16:43.121Z,1008.6
2022-10-12T06:17:59.356Z,1008.6
2022-10-12T06:19:14.618Z,1008.7
2022-10-12T06:20:30.847Z,1008.6
2022-10-12T06:21:47.089Z,1008.6
2022-10-12T06:23:03.326Z,1008.6
2022-10-12T06:24:19.561Z,1008.7
2022-10-12T06:25:35.814Z,1008.6
2022-10-12T06:26:52.053Z,1008.6
2022-10-12T06:28:08.283Z,1008.6
2022-10-12T06:29:23.544Z,1008.6
2022-10-12T06:30:38.809Z,1008.6
2022-10-12T06:31:54.069Z,1008.6
2022-10-12T06:33:09.313Z,1008.6
2022-10-12T06:34:25.561Z,1008.7
2022-10-12T06:35:41.793Z,1008.7
2022-10-12T06:36:58.032Z,1008.7
2022-10-12T06:38:14.273Z,1008.7
2022-10-12T06:39:30.515Z,1008.7
2022-10-12T06:40:46.752Z,1008.7
2022-10-12T06:42:02.989Z,1008.7
2022-10-12T06:43:19.229Z,1008.7
2022-10-12T06:44:35.466Z,1008.7
2022-10-12T06:45:51.708Z,1008.7
2022-10-12T06:47:07.948Z,1008.6
2022-10-12T06:48:24.186Z,1008.7
2022-10-12T06:49:39.445Z,1008.7
2022-10-12T06:50:55.679Z,1008.7
2022-10-12T06:52:11.927Z,1008.7
2022-10-12T06:53:28.164Z,1008.8
2022-10-12T06:54:44.393Z,1008.7
2022-10-12T06:56:00.643Z,1008.8
2022-10-12T06:57:16.889Z,1008.8
2022-10-12T06:58:33.112Z,1008.7
2022-10-12T06:59:48.380Z,1008.7
2022-10-12T07:01:03.626Z,1008.7
2022-10-12T07:02:18.890Z,1008.6
2022-10-12T07:03:34.143Z,1008.7
2022-10-12T07:04:50.393Z,1008.7
2022-10-12T07:06:06.622Z,1008.7
2022-10-12T07:07:22.862Z,1008.7
2022-10-12T07:08:39.115Z,1008.7
2022-10-12T07:09:55.343Z,1008.6
2022-10-12T07:11:11.586Z,1008.6
2022-10-12T07:12:27.828Z,1008.7
2022-10-12T07:13:44.062Z,1008.7
2022-10-12T07:15:00.299Z,1008.7
2022-10-12T07:16:16.549Z,1008.6
2022-10-12T07:17:32.780Z,1008.7
2022-10-12T07:18:49.017Z,1008.7
2022-10-12T07:20:04.270Z,1008.7
2022-10-12T07:21:20.519Z,1008.7
2022-10-12T07:22:36.764Z,1008.7
2022-10-12T07:23:52.991Z,1008.6
2022-10-12T07:25:09.235Z,1008.7
2022-10-12T07:26:25.466Z,1008.6
2022-10-12T07:27:41.711Z,1008.7
2022-10-12T07:28:56.971Z,1008.6
2022-10-12T07:30:12.231Z,1008.7
2022-10-12T07:31:27.486Z,1008.7
2022-10-12T07:32:42.750Z,1008.7
2022-10-12T07:33:58.002Z,1008.7
2022-10-12T07:35:13.257Z,1008.7
2022-10-12T07:36:29.497Z,1008.7
2022-10-12T07:37:45.733Z,1008.7
2022-10-12T07:39:01.984Z,1008.8
2022-10-12T07:40:18.213Z,1008.8
2022-10-12T07:41:34.453Z,1008.8
2022-10-12T07:42:50.699Z,1008.8
2022-10-12T07:44:06.937Z,1008.8
2022-10-12T07:45:23.176Z,1008.8
2022-10-12T07:46:39.421Z,1008.9
2022-10-12T07:47:55.651Z,1008.9
2022-10-12T07:49:11.901Z,1008.8
2022-10-12T07:50:28.126Z,1008.9
2022-10-12T07:51:43.382Z,1008.8
2022-10-12T07:52:59.631Z,1008.8
2022-10-12T07:54:15.865Z,1008.8
2022-10-12T07:55:32.097Z,1008.8
2022-10-12T07:56:48.339Z,1008.8
2022-10-12T07:58:04.584Z,1008.8
2022-10-12T07:59:20.817Z,1008.8
2022-10-12T08:00:36.078Z,1008.8
2022-10-12T08:01:51.346Z,1008.8
2022-10-12T08:03:07.578Z,1008.8
2022-10-12T08:04:23.819Z,1008.8
2022-10-12T08:05:40.056Z,1008.7
2022-10-12T08:06:56.287Z,1008.7
2022-10-12T08:08:12.537Z,1008.7
2022-10-12T08:09:28.772Z,1008.7
2022-10-12T08:10:45.012Z,1008.7
2022-10-12T08:12:01.259Z,1008.8
2022-10-12T08:13:17.486Z,1008.8
2022-10-12T08:14:33.730Z,1008.8
2022-10-12T08:15:49.971Z,1008.8
2022-10-12T08:17:06.207Z,1008.8
2022-10-12T08:18:21.472Z,1008.7
2022-10-12T08:19:37.696Z,1008.7
2022-10-12T08:20:53.939Z,1008.7
2022-10-12T08:22:10.182Z,1008.8
2022-10-12T08:23:26.411Z,1008.7
2022-10-12T08:24:42.654Z,1008.7
2022-10-12T08:25:58.907Z,1008.7
2022-10-12T08:27:14.165Z,1008.7
2022-10-12T08:28:29.421Z,1008.7
2022-10-12T08:29:44.690Z,1008.7
2022-10-12T08:30:59.000Z,1008.6
2022-10-12T08:32:16.169Z,1008.6
2022-10-12T08:33:32.416Z,1008.6
2022-10-12T08:34:48.652Z,1008.6
2022-10-12T08:36:04.880Z,1008.6
2022-10-12T08:37:21.134Z,1008.6
2022-10-12T08:38:37.368Z,1008.6
2022-10-12T08:39:53.607Z,1008.5
2022-10-12T08:41:09.836Z,1008.5
2022-10-12T08:42:26.096Z,1008.5
2022-10-12T08:43:42.318Z,1008.5
2022-10-12T08:44:58.556Z,1008.5
2022-10-12T08:46:14.797Z,1008.5
2022-10-12T08:47:30.067Z,1008.5
2022-10-12T08:48:46.291Z,1008.5
2022-10-12T08:50:02.526Z,1008.5
2022-10-12T08:51:18.768Z,1008.5
2022-10-12T08:52:35.006Z,1008.5
2022-10-12T08:53:51.248Z,1008.5
2022-10-12T08:55:07.483Z,1008.5
2022-10-12T08:56:22.747Z,1008.5
2022-10-12T08:57:38.004Z,1008.4
2022-10-12T08:58:54.239Z,1008.4
2022-10-12T09:00:10.486Z,1008.4
2022-10-12T09:01:26.719Z,1008.4
2022-10-12T09:02:42.963Z,1008.4
2022-10-12T09:03:59.200Z,1008.4
2022-10-12T09:05:15.432Z,1008.4
2022-10-12T09:06:31.682Z,1008.4
2022-10-12T09:07:47.916Z,1008.4
2022-10-12T09:09:04.161Z,1008.3
2022-10-12T09:10:20.396Z,1008.4
2022-10-12T09:11:36.632Z,1008.3
2022-10-12T09:12:52.870Z,1008.3
2022-10-12T09:14:08.132Z,1008.3
2022-10-12T09:15:24.374Z,1008.2
2022-10-12T09:16:40.598Z,1008.2
2022-10-12T09:17:56.857Z,1008.2
2022-10-12T09:19:13.083Z,1008.3
2022-10-12T09:20:29.329Z,1008.2
2022-10-12T09:21:45.558Z,1008.2
2022-10-12T09:23:00.822Z,1008.3
2022-10-12T09:24:16.077Z,1008.2
2022-10-12T09:25:31.349Z,1008.3
2022-10-12T09:26:46.590Z,1008.2
2022-10-12T09:28:01.858Z,1008.3
2022-10-12T09:29:17.109Z,1008.2
2022-10-12T09:30:33.350Z,1008.2
2022-10-12T09:31:49.589Z,1008.2
2022-10-12T09:33:05.829Z,1008.3
2022-10-12T09:34:22.070Z,1008.3
2022-10-12T09:35:38.302Z,1008.2
2022-10-12T09:36:54.551Z,1008.3
2022-10-12T09:38:10.782Z,1008.3
2022-10-12T09:39:27.030Z,1008.2
2022-10-12T09:40:43.261Z,1008.2
2022-10-12T09:41:59.498Z,1008.1
2022-10-12T09:43:15.739Z,1008.2
2022-10-12T09:44:31.980Z,1008.2
2022-10-12T09:45:47.234Z,1008.1
2022-10-12T09:47:03.479Z,1008.2
2022-10-12T09:48:19.707Z,1008.2
2022-10-12T09:49:35.961Z,1008.1
2022-10-12T09:50:51.216Z,1008.2
2022-10-12T09:52:07.449Z,1008.1
2022-10-12T09:53:23.689Z,1008.1
2022-10-12T09:54:38.952Z,1008.2
2022-10-12T09:55:54.207Z,1008.1
2022-10-12T09:57:10.448Z,1008.1
2022-10-12T09:58:26.686Z,1008.1
2022-10-12T09:59:42.922Z,1008.1
2022-10-12T10:00:59.163Z,1008.1
2022-10-12T10:02:15.392Z,1008.1
2022-10-12T10:03:31.000Z,1008.1
2022-10-12T10:04:47.874Z,1008.2
2022-10-12T10:06:04.111Z,1008.1
2022-10-12T10:07:20.352Z,1008.1
2022-10-12T10:08:36.596Z,1008.1
2022-10-12T10:09:52.829Z,1008.1
2022-10-12T10:11:09.072Z,1008.1
2022-10-12T10:12:24.326Z,1008.1
2022-10-12T10:13:40.564Z,1008.1
2022-10-12T10:14:56.810Z,1008.1
2022-10-12T10:16:13.051Z,1008.1
2022-10-12T10:17:29.282Z,1008.1
2022-10-12T10:18:45.520Z,1008.1
2022-10-12T10:20:01.763Z,1008.1
2022-10-12T10:21:17.029Z,1008.1
2022-10-12T10:22:32.280Z,1008
2022-10-12T10:23:47.537Z,1008
2022-10-12T10:25:02.795Z,1008
2022-10-12T10:26:19.034Z,1008
2022-10-12T10:27:35.281Z,1008.1
2022-10-12T10:28:51.511Z,1008.1
2022-10-12T10:30:07.745Z,1008
2022-10-12T10:31:23.983Z,1008
2022-10-12T10:32:40.239Z,1008
2022-10-12T10:33:56.467Z,1008
2022-10-12T10:35:12.710Z,1008.1
2022-10-12T10:36:28.942Z,1008
2022-10-12T10:37:45.190Z,1008
2022-10-12T10:39:01.419Z,1008.1
2022-10-12T10:40:17.657Z,1008
2022-10-12T10:41:32.909Z,1008
2022-10-12T10:42:49.165Z,1008
2022-10-12T10:44:05.398Z,1008.1
2022-10-12T10:45:21.626Z,1008
2022-10-12T10:46:37.877Z,1008
2022-10-12T10:47:54.105Z,1008
2022-10-12T10:49:10.345Z,1008
2022-10-12T10:50:25.608Z,1007.9
2022-10-12T10:51:40.872Z,1007.9
2022-10-12T10:52:56.128Z,1007.9
2022-10-12T10:54:11.381Z,1007.9
2022-10-12T10:55:26.652Z,1007.9
2022-10-12T10:56:41.907Z,1007.8
2022-10-12T10:57:57.166Z,1007.9
2022-10-12T10:59:12.412Z,1007.9
2022-10-12T11:00:28.650Z,1007.9
2022-10-12T11:01:44.888Z,1007.8
2022-10-12T11:03:01.136Z,1007.8
2022-10-12T11:04:17.369Z,1007.8
2022-10-12T11:05:33.607Z,1007.8
2022-10-12T11:06:49.847Z,1007.8
2022-10-12T11:08:06.095Z,1007.8
2022-10-12T11:09:22.333Z,1007.8
2022-10-12T11:10:38.571Z,1007.7
2022-10-12T11:11:54.817Z,1007.7
2022-10-12T11:13:11.052Z,1007.7
2022-10-12T11:14:27.280Z,1007.7
2022-10-12T11:15:42.554Z,1007.7
2022-10-12T11:16:58.776Z,1007.7
2022-10-12T11:18:15.024Z,1007.7
2022-10-12T11:19:31.263Z,1007.7
2022-10-12T11:20:47.496Z,1007.7
2022-10-12T11:22:03.739Z,1007.6
2022-10-12T11:23:19.977Z,1007.6
2022-10-12T11:24:35.235Z,1007.6
2022-10-12T11:25:50.494Z,1007.6
2022-10-12T11:27:05.750Z,1007.5
2022-10-12T11:28:21.009Z,1007.5
2022-10-12T11:29:37.260Z,1007.4
2022-10-12T11:30:53.489Z,1007.5
2022-10-12T11:32:09.739Z,1007.5
2022-10-12T11:39:47.160Z,1007.5
2022-10-12T11:41:03.401Z,1007.5
2022-10-12T11:42:19.632Z,1007.4
2022-10-12T11:43:35.000Z,1007.4
2022-10-12T11:47:23.606Z,1007.4
2022-10-12T11:49:56.083Z,1007.4
2022-10-12T11:51:12.331Z,1007.4
2022-10-12T11:52:28.561Z,1007.3
2022-10-12T11:53:44.812Z,1007.3
2022-10-12T11:55:01.049Z,1007.2
2022-10-12T11:56:16.300Z,1007.3
2022-10-12T11:57:31.555Z,1007.2
2022-10-12T11:58:46.821Z,1007.2
2022-10-12T12:00:02.068Z,1007.2
2022-10-12T12:01:18.311Z,1007.3
2022-10-12T12:02:34.548Z,1007.3
2022-10-12T12:03:50.793Z,1007.2
2022-10-12T12:05:07.023Z,1007.2
2022-10-12T12:06:23.270Z,1007.2
2022-10-12T12:07:39.521Z,1007.2
2022-10-12T12:08:55.757Z,1007.2
2022-10-12T12:10:11.992Z,1007.1
2022-10-12T12:11:28.219Z,1007.1
2022-10-12T12:12:44.461Z,1007.2
2022-10-12T12:14:00.709Z,1007.2
2022-10-12T12:15:16.933Z,1007.2
2022-10-12T12:16:32.200Z,1007.2
2022-10-12T12:17:48.443Z,1007.2
2022-10-12T12:19:04.676Z,1007.2
2022-10-12T12:20:20.908Z,1007.1
2022-10-12T12:21:37.144Z,1007.1
2022-10-12T12:22:53.388Z,1007.1
2022-10-12T12:24:09.634Z,1007
2022-10-12T12:25:24.884Z,1007.1
2022-10-12T12:26:40.142Z,1007
2022-10-12T12:27:55.406Z,1007.1
2022-10-12T12:29:10.667Z,1007
2022-10-12T12:30:26.899Z,1007.1
2022-10-12T12:31:43.150Z,1007
2022-10-12T12:32:59.379Z,1007
2022-10-12T12:34:15.619Z,1007
2022-10-12T12:35:31.848Z,1007
2022-10-12T12:36:48.095Z,1007
2022-10-12T12:38:04.336Z,1007
2022-10-12T12:39:20.580Z,1006.9
2022-10-12T12:40:36.817Z,1006.9
2022-10-12T12:41:53.043Z,1006.8
2022-10-12T12:43:09.295Z,1006.8
2022-10-12T12:44:25.537Z,1006.8
2022-10-12T12:45:40.779Z,1006.8
2022-10-12T12:46:57.023Z,1006.8
2022-10-12T12:48:13.262Z,1006.8
2022-10-12T12:49:29.494Z,1006.8
2022-10-12T12:50:45.740Z,1006.8
2022-10-12T12:52:01.983Z,1006.7
2022-10-12T12:53:18.216Z,1006.7
2022-10-12T12:54:33.472Z,1006.7
2022-10-12T12:55:48.724Z,1006.7
2022-10-12T12:57:04.004Z,1006.7
2022-10-12T12:58:19.261Z,1006.8
2022-10-12T12:59:35.481Z,1006.7
2022-10-12T13:00:51.720Z,1006.7
2022-10-12T13:02:07.959Z,1006.7
2022-10-12T13:03:24.204Z,1006.7
2022-10-12T13:04:40.447Z,1006.7
2022-10-12T13:05:56.690Z,1006.7
2022-10-12T13:07:12.924Z,1006.7
2022-10-12T13:08:29.157Z,1006.7
2022-10-12T13:09:45.399Z,1006.7
2022-10-12T13:11:01.642Z,1006.7
2022-10-12T13:12:17.867Z,1006.7
2022-10-12T13:13:34.111Z,1006.6
2022-10-12T13:14:49.371Z,1006.6
2022-10-12T13:16:05.622Z,1006.6
2022-10-12T13:17:21.842Z,1006.6
2022-10-12T13:18:38.093Z,1006.6
2022-10-12T13:19:54.341Z,1006.6
2022-10-12T13:21:10.561Z,1006.5
2022-10-12T13:22:26.811Z,1006.5
2022-10-12T13:23:42.061Z,1006.5
2022-10-12T13:24:57.317Z,1006.5
2022-10-12T13:26:13.556Z,1006.5
2022-10-12T13:27:29.793Z,1006.5
2022-10-12T13:28:46.040Z,1006.5
2022-10-12T13:30:02.276Z,1006.5
2022-10-12T13:31:18.519Z,1006.5
2022-10-12T13:32:34.755Z,1006.5
2022-10-12T13:33:50.999Z,1006.4
2022-10-12T13:35:07.240Z,1006.5
2022-10-12T13:36:23.478Z,1006.5
2022-10-12T13:37:39.714Z,1006.5
2022-10-12T13:38:55.955Z,1006.4
2022-10-12T13:40:12.182Z,1006.5
2022-10-12T13:41:27.449Z,1006.4
2022-10-12T13:42:43.680Z,1006.4
2022-10-12T13:43:59.927Z,1006.4
2022-10-12T13:45:16.166Z,1006.4
2022-10-12T13:46:32.404Z,1006.4
2022-10-12T13:47:48.650Z,1006.3
2022-10-12T13:49:04.885Z,1006.3
2022-10-12T13:50:20.135Z,1006.4
2022-10-12T13:51:35.396Z,1006.3
2022-10-12T13:52:51.631Z,1006.4
2022-10-12T13:54:07.876Z,1006.3
2022-10-12T13:55:24.000Z,1006.3
2022-10-12T13:56:40.349Z,1006.3
2022-10-12T13:57:56.592Z,1006.3
2022-10-12T13:59:12.826Z,1006.3
2022-10-12T14:00:29.069Z,1006.3
2022-10-12T14:01:45.301Z,1006.2
2022-10-12T14:03:01.539Z,1006.2
2022-10-12T14:04:17.785Z,1006.2
2022-10-12T14:05:33.045Z,1006.2
2022-10-12T14:06:49.280Z,1006.2
2022-10-12T14:08:05.519Z,1006.2
2022-10-12T14:09:21.768Z,1006.2
2022-10-12T14:10:38.001Z,1006.1
2022-10-12T14:11:54.245Z,1006.1
2022-10-12T14:13:10.486Z,1006.1
2022-10-12T14:14:26.726Z,1006.1
2022-10-12T14:15:42.968Z,1006.1
2022-10-12T14:16:58.225Z,1006.1
2022-10-12T14:18:13.482Z,1006
2022-10-12T14:19:29.726Z,1006.1
2022-10-12T14:20:45.952Z,1006.1
2022-10-12T14:22:02.204Z,1006.1
2022-10-12T14:23:18.440Z,1006.1
2022-10-12T14:24:34.676Z,1006
2022-10-12T14:25:50.917Z,1006
2022-10-12T14:27:07.159Z,1006.1
2022-10-12T14:28:23.402Z,1006
2022-10-12T14:29:39.630Z,1006
2022-10-12T14:30:55.868Z,1006
2022-10-12T14:32:12.113Z,1006
2022-10-12T14:33:28.343Z,1006
2022-10-12T14:34:43.610Z,1006
2022-10-12T14:35:59.843Z,1006
2022-10-12T14:37:16.100Z,1006
2022-10-12T14:38:32.329Z,1006
2022-10-12T14:39:48.557Z,1006
2022-10-12T14:41:04.806Z,1006
2022-10-12T14:42:21.044Z,1006
2022-10-12T14:43:36.313Z,1006
2022-10-12T14:44:51.573Z,1006
2022-10-12T14:46:07.794Z,1006
2022-10-12T14:47:24.029Z,1006
2022-10-12T14:48:40.289Z,1006
2022-10-12T14:49:56.524Z,1005.9
2022-10-12T14:51:12.756Z,1006
2022-10-12T14:52:28.993Z,1005.9
2022-10-12T14:53:45.238Z,1006
2022-10-12T14:55:01.465Z,1005.9
2022-10-12T14:56:17.726Z,1006
2022-10-12T14:57:33.955Z,1005.9
2022-10-12T14:58:50.202Z,1006
2022-10-12T15:00:06.436Z,1005.9
2022-10-12T15:01:21.699Z,1005.9
2022-10-12T15:02:37.921Z,1005.9
2022-10-12T15:03:54.169Z,1005.9
2022-10-12T15:05:10.000Z,1005.9
2022-10-12T15:06:26.651Z,1005.9
2022-10-12T15:07:42.897Z,1005.8
2022-10-12T15:08:59.126Z,1005.9
2022-10-12T15:10:15.365Z,1005.9
2022-10-12T15:11:31.595Z,1005.9
2022-10-12T15:12:47.847Z,1005.9
2022-10-12T15:14:04.080Z,1005.8
2022-10-12T15:15:20.316Z,1005.9
2022-10-12T15:16:36.549Z,1005.8
2022-10-12T15:17:52.805Z,1005.8
2022-10-12T15:19:08.058Z,1005.8
2022-10-12T15:20:24.314Z,1005.8
2022-10-12T15:21:40.537Z,1005.8
2022-10-12T15:22:56.770Z,1005.8
2022-10-12T15:24:13.026Z,1005.8
2022-10-12T15:25:29.258Z,1005.7
2022-10-12T15:26:45.489Z,1005.8
2022-10-12T15:28:01.722Z,1005.8
2022-10-12T15:29:17.964Z,1005.8
2022-10-12T15:30:34.208Z,1005.7
2022-10-12T15:31:50.454Z,1005.7
2022-10-12T15:33:06.698Z,1005.7
2022-10-12T15:34:22.921Z,1005.7
2022-10-12T15:35:38.193Z,1005.7
2022-10-12T15:36:54.442Z,1005.7
2022-10-12T15:38:10.667Z,1005.7
2022-10-12T15:39:26.923Z,1005.8
2022-10-12T15:40:43.162Z,1005.8
2022-10-12T15:41:59.386Z,1005.8
2022-10-12T15:43:15.607Z,1005.8
2022-10-12T15:44:31.860Z,1005.8
2022-10-12T15:45:48.090Z,1005.8
2022-10-12T15:47:04.342Z,1005.8
2022-10-12T15:48:20.567Z,1005.8
2022-10-12T15:49:36.801Z,1005.8
2022-10-12T15:50:53.050Z,1005.7
2022-10-12T15:52:08.322Z,1005.7
2022-10-12T15:53:24.553Z,1005.7
2022-10-12T15:54:40.784Z,1005.7
2022-10-12T15:55:57.025Z,1005.7
2022-10-12T15:57:13.263Z,1005.7
2022-10-12T15:58:29.510Z,1005.7
2022-10-12T15:59:45.738Z,1005.7
2022-10-12T16:01:01.967Z,1005.8
2022-10-12T16:02:18.218Z,1005.7
2022-10-12T16:03:34.460Z,1005.7
2022-10-12T16:04:50.682Z,1005.7
2022-10-12T16:06:06.942Z,1005.7